sensor_id;sensor_type;location;lat;lon;timestamp;P1;durP1;ratioP1;P2;durP2;ratioP2
45490;SDS011;31237;45.586;13.782;2022-08-03T00:01:31;2.55;;;1.48;;
45490;SDS011;31237;45.586;13.782;2022-08-03T00:03:57;2.47;;;1.50;;
45490;SDS011;31237;45.586;13.782;2022-08-03T00:06:23;2.50;;;1.60;;
45490;SDS011;31237;45.586;13.782;2022-08-03T00:08:49;2.83;;;1.60;;
45490;SDS011;31237;45.586;13.782;2022-08-03T00:11:14;2.70;;;1.67;;
45490;SDS011;31237;45.586;13.782;2022-08-03T00:13:40;2.85;;;1.73;;
45490;SDS011;31237;45.586;13.782;2022-08-03T00:16:06;2.80;;;1.85;;
45490;SDS011;31237;45.586;13.782;2022-08-03T00:18:34;3.10;;;1.50;;
45490;SDS011;31237;45.586;13.782;2022-08-03T00:21:00;2.53;;;1.40;;
45490;SDS011;31237;45.586;13.782;2022-08-03T00:23:26;3.17;;;1.88;;
45490;SDS011;31237;45.586;13.782;2022-08-03T00:25:52;2.67;;;1.70;;
45490;SDS011;31237;45.586;13.782;2022-08-03T00:28:18;2.90;;;1.70;;
45490;SDS011;31237;45.586;13.782;2022-08-03T00:30:44;3.15;;;1.70;;
45490;SDS011;31237;45.586;13.782;2022-08-03T00:33:09;2.95;;;1.60;;
45490;SDS011;31237;45.586;13.782;2022-08-03T00:35:35;3.30;;;1.73;;
45490;SDS011;31237;45.586;13.782;2022-08-03T00:38:01;2.50;;;1.50;;
45490;SDS011;31237;45.586;13.782;2022-08-03T00:40:27;2.80;;;1.77;;
45490;SDS011;31237;45.586;13.782;2022-08-03T00:42:54;2.92;;;1.83;;
45490;SDS011;31237;45.586;13.782;2022-08-03T00:45:32;3.00;;;1.70;;
45490;SDS011;31237;45.586;13.782;2022-08-03T00:48:00;3.25;;;2.00;;
45490;SDS011;31237;45.586;13.782;2022-08-03T00:50:28;2.88;;;1.70;;
45490;SDS011;31237;45.586;13.782;2022-08-03T00:52:55;2.80;;;1.70;;
45490;SDS011;31237;45.586;13.782;2022-08-03T00:55:23;3.03;;;1.77;;
45490;SDS011;31237;45.586;13.782;2022-08-03T00:57:49;2.85;;;1.60;;
45490;SDS011;31237;45.586;13.782;2022-08-03T01:00:18;3.47;;;1.88;;
45490;SDS011;31237;45.586;13.782;2022-08-03T01:02:45;3.20;;;1.88;;
45490;SDS011;31237;45.586;13.782;2022-08-03T01:05:11;3.47;;;2.08;;
45490;SDS011;31237;45.586;13.782;2022-08-03T01:13:20;2.60;;;1.60;;
45490;SDS011;31237;45.586;13.782;2022-08-03T01:21:02;2.85;;;1.65;;
45490;SDS011;31237;45.586;13.782;2022-08-03T01:23:36;3.15;;;1.90;;
45490;SDS011;31237;45.586;13.782;2022-08-03T01:31:38;3.10;;;1.70;;
45490;SDS011;31237;45.586;13.782;2022-08-03T01:34:21;2.88;;;1.83;;
45490;SDS011;31237;45.586;13.782;2022-08-03T01:36:51;3.13;;;1.80;;
45490;SDS011;31237;45.586;13.782;2022-08-03T01:39:20;3.88;;;1.67;;
45490;SDS011;31237;45.586;13.782;2022-08-03T01:41:48;3.15;;;1.70;;
45490;SDS011;31237;45.586;13.782;2022-08-03T01:44:23;2.38;;;1.60;;
45490;SDS011;31237;45.586;13.782;2022-08-03T01:46:53;3.65;;;1.70;;
45490;SDS011;31237;45.586;13.782;2022-08-03T01:49:24;3.53;;;1.80;;
45490;SDS011;31237;45.586;13.782;2022-08-03T01:51:52;3.20;;;2.00;;
45490;SDS011;31237;45.586;13.782;2022-08-03T01:54:19;3.13;;;1.92;;
45490;SDS011;31237;45.586;13.782;2022-08-03T01:56:46;2.90;;;1.65;;
45490;SDS011;31237;45.586;13.782;2022-08-03T01:59:15;4.00;;;1.98;;
45490;SDS011;31237;45.586;13.782;2022-08-03T02:01:43;3.33;;;1.60;;
45490;SDS011;31237;45.586;13.782;2022-08-03T02:04:10;3.05;;;1.80;;
45490;SDS011;31237;45.586;13.782;2022-08-03T02:06:41;2.70;;;1.60;;
45490;SDS011;31237;45.586;13.782;2022-08-03T02:09:11;3.35;;;1.90;;
45490;SDS011;31237;45.586;13.782;2022-08-03T02:11:38;3.33;;;1.90;;
45490;SDS011;31237;45.586;13.782;2022-08-03T02:14:06;3.17;;;2.10;;
45490;SDS011;31237;45.586;13.782;2022-08-03T02:16:33;3.60;;;1.67;;
45490;SDS011;31237;45.586;13.782;2022-08-03T02:19:01;2.75;;;1.60;;
45490;SDS011;31237;45.586;13.782;2022-08-03T02:21:29;3.85;;;2.03;;
45490;SDS011;31237;45.586;13.782;2022-08-03T02:23:57;3.58;;;1.90;;
45490;SDS011;31237;45.586;13.782;2022-08-03T02:26:23;3.25;;;1.77;;
45490;SDS011;31237;45.586;13.782;2022-08-03T02:28:54;3.08;;;1.80;;
45490;SDS011;31237;45.586;13.782;2022-08-03T02:31:22;3.00;;;1.80;;
45490;SDS011;31237;45.586;13.782;2022-08-03T02:33:53;2.50;;;1.58;;
45490;SDS011;31237;45.586;13.782;2022-08-03T02:36:24;2.67;;;1.60;;
45490;SDS011;31237;45.586;13.782;2022-08-03T02:38:53;2.97;;;1.52;;
45490;SDS011;31237;45.586;13.782;2022-08-03T02:41:24;2.83;;;1.77;;
45490;SDS011;31237;45.586;13.782;2022-08-03T02:43:54;2.92;;;1.80;;
45490;SDS011;31237;45.586;13.782;2022-08-03T02:46:24;3.53;;;1.90;;
45490;SDS011;31237;45.586;13.782;2022-08-03T02:48:56;3.13;;;1.77;;
45490;SDS011;31237;45.586;13.782;2022-08-03T02:51:27;3.03;;;1.83;;
45490;SDS011;31237;45.586;13.782;2022-08-03T02:53:56;2.83;;;1.65;;
45490;SDS011;31237;45.586;13.782;2022-08-03T02:56:24;4.85;;;2.40;;
45490;SDS011;31237;45.586;13.782;2022-08-03T02:58:51;3.35;;;1.80;;
45490;SDS011;31237;45.586;13.782;2022-08-03T03:01:19;3.13;;;1.80;;
45490;SDS011;31237;45.586;13.782;2022-08-03T03:03:47;2.55;;;1.63;;
45490;SDS011;31237;45.586;13.782;2022-08-03T03:06:16;3.63;;;1.75;;
45490;SDS011;31237;45.586;13.782;2022-08-03T03:08:43;2.97;;;1.80;;
45490;SDS011;31237;45.586;13.782;2022-08-03T03:11:10;4.35;;;2.00;;
45490;SDS011;31237;45.586;13.782;2022-08-03T03:13:38;2.63;;;1.63;;
45490;SDS011;31237;45.586;13.782;2022-08-03T03:16:07;2.75;;;1.50;;
45490;SDS011;31237;45.586;13.782;2022-08-03T03:18:35;3.20;;;1.90;;
45490;SDS011;31237;45.586;13.782;2022-08-03T03:21:03;2.92;;;1.73;;
45490;SDS011;31237;45.586;13.782;2022-08-03T03:23:31;3.08;;;1.67;;
45490;SDS011;31237;45.586;13.782;2022-08-03T03:26:01;2.97;;;1.50;;
45490;SDS011;31237;45.586;13.782;2022-08-03T03:28:27;2.97;;;1.70;;
45490;SDS011;31237;45.586;13.782;2022-08-03T03:30:54;3.90;;;1.80;;
45490;SDS011;31237;45.586;13.782;2022-08-03T03:33:21;3.63;;;1.70;;
45490;SDS011;31237;45.586;13.782;2022-08-03T03:35:47;3.35;;;1.90;;
45490;SDS011;31237;45.586;13.782;2022-08-03T03:38:13;2.67;;;1.73;;
45490;SDS011;31237;45.586;13.782;2022-08-03T03:40:39;2.72;;;1.70;;
45490;SDS011;31237;45.586;13.782;2022-08-03T03:43:11;3.28;;;1.92;;
45490;SDS011;31237;45.586;13.782;2022-08-03T03:45:39;3.33;;;2.05;;
45490;SDS011;31237;45.586;13.782;2022-08-03T03:48:07;2.95;;;1.65;;
45490;SDS011;31237;45.586;13.782;2022-08-03T03:50:33;2.88;;;1.92;;
45490;SDS011;31237;45.586;13.782;2022-08-03T03:53:00;3.03;;;1.73;;
45490;SDS011;31237;45.586;13.782;2022-08-03T03:55:27;3.22;;;1.80;;
45490;SDS011;31237;45.586;13.782;2022-08-03T03:57:53;3.35;;;1.80;;
45490;SDS011;31237;45.586;13.782;2022-08-03T04:00:19;2.92;;;1.88;;
45490;SDS011;31237;45.586;13.782;2022-08-03T04:02:45;3.15;;;1.88;;
45490;SDS011;31237;45.586;13.782;2022-08-03T04:05:11;3.10;;;1.83;;
45490;SDS011;31237;45.586;13.782;2022-08-03T04:08:11;3.30;;;1.98;;
45490;SDS011;31237;45.586;13.782;2022-08-03T04:11:41;2.90;;;1.90;;
45490;SDS011;31237;45.586;13.782;2022-08-03T04:14:12;2.53;;;1.60;;
45490;SDS011;31237;45.586;13.782;2022-08-03T04:16:45;2.72;;;1.65;;
45490;SDS011;31237;45.586;13.782;2022-08-03T04:19:36;4.50;;;1.77;;
45490;SDS011;31237;45.586;13.782;2022-08-03T04:22:02;2.83;;;1.75;;
45490;SDS011;31237;45.586;13.782;2022-08-03T04:24:39;3.00;;;1.75;;
45490;SDS011;31237;45.586;13.782;2022-08-03T04:27:09;3.22;;;1.80;;
45490;SDS011;31237;45.586;13.782;2022-08-03T04:29:38;3.40;;;1.90;;
45490;SDS011;31237;45.586;13.782;2022-08-03T04:32:08;2.78;;;1.77;;
45490;SDS011;31237;45.586;13.782;2022-08-03T04:34:35;2.65;;;1.80;;
45490;SDS011;31237;45.586;13.782;2022-08-03T04:37:02;5.28;;;2.28;;
45490;SDS011;31237;45.586;13.782;2022-08-03T04:39:35;2.75;;;1.55;;
45490;SDS011;31237;45.586;13.782;2022-08-03T04:42:03;2.88;;;1.77;;
45490;SDS011;31237;45.586;13.782;2022-08-03T04:44:34;3.00;;;1.80;;
45490;SDS011;31237;45.586;13.782;2022-08-03T04:47:02;3.10;;;1.70;;
45490;SDS011;31237;45.586;13.782;2022-08-03T04:49:28;3.05;;;1.92;;
45490;SDS011;31237;45.586;13.782;2022-08-03T04:51:55;3.40;;;1.88;;
45490;SDS011;31237;45.586;13.782;2022-08-03T04:54:21;3.33;;;1.80;;
45490;SDS011;31237;45.586;13.782;2022-08-03T04:56:46;3.20;;;1.80;;
45490;SDS011;31237;45.586;13.782;2022-08-03T04:59:12;2.97;;;1.67;;
45490;SDS011;31237;45.586;13.782;2022-08-03T05:01:38;3.40;;;1.98;;
45490;SDS011;31237;45.586;13.782;2022-08-03T05:04:06;3.13;;;1.80;;
45490;SDS011;31237;45.586;13.782;2022-08-03T05:06:32;3.08;;;1.83;;
45490;SDS011;31237;45.586;13.782;2022-08-03T05:08:57;3.25;;;2.10;;
45490;SDS011;31237;45.586;13.782;2022-08-03T05:11:23;3.15;;;1.98;;
45490;SDS011;31237;45.586;13.782;2022-08-03T05:13:49;3.90;;;1.52;;
45490;SDS011;31237;45.586;13.782;2022-08-03T05:16:14;4.15;;;1.60;;
45490;SDS011;31237;45.586;13.782;2022-08-03T05:18:40;2.80;;;1.73;;
45490;SDS011;31237;45.586;13.782;2022-08-03T05:21:10;3.58;;;2.00;;
45490;SDS011;31237;45.586;13.782;2022-08-03T05:23:38;2.63;;;1.63;;
45490;SDS011;31237;45.586;13.782;2022-08-03T05:26:04;3.13;;;1.80;;
45490;SDS011;31237;45.586;13.782;2022-08-03T05:28:30;3.17;;;1.80;;
45490;SDS011;31237;45.586;13.782;2022-08-03T05:30:55;3.58;;;1.70;;
45490;SDS011;31237;45.586;13.782;2022-08-03T05:33:21;3.05;;;1.70;;
45490;SDS011;31237;45.586;13.782;2022-08-03T05:35:47;2.65;;;1.45;;
45490;SDS011;31237;45.586;13.782;2022-08-03T05:38:13;2.70;;;1.70;;
45490;SDS011;31237;45.586;13.782;2022-08-03T05:40:38;2.85;;;1.60;;
45490;SDS011;31237;45.586;13.782;2022-08-03T05:43:04;2.53;;;1.70;;
45490;SDS011;31237;45.586;13.782;2022-08-03T05:45:30;3.55;;;1.65;;
45490;SDS011;31237;45.586;13.782;2022-08-03T05:47:55;3.67;;;1.85;;
45490;SDS011;31237;45.586;13.782;2022-08-03T05:50:21;2.75;;;1.60;;
45490;SDS011;31237;45.586;13.782;2022-08-03T05:52:47;2.60;;;1.70;;
45490;SDS011;31237;45.586;13.782;2022-08-03T05:55:12;2.33;;;1.50;;
45490;SDS011;31237;45.586;13.782;2022-08-03T05:57:39;2.67;;;1.40;;
45490;SDS011;31237;45.586;13.782;2022-08-03T06:00:06;2.95;;;1.67;;
45490;SDS011;31237;45.586;13.782;2022-08-03T06:02:33;2.47;;;1.63;;
45490;SDS011;31237;45.586;13.782;2022-08-03T06:05:00;3.75;;;1.80;;
45490;SDS011;31237;45.586;13.782;2022-08-03T06:07:26;2.70;;;1.60;;
45490;SDS011;31237;45.586;13.782;2022-08-03T06:09:52;3.08;;;1.70;;
45490;SDS011;31237;45.586;13.782;2022-08-03T06:12:17;2.80;;;1.80;;
45490;SDS011;31237;45.586;13.782;2022-08-03T06:14:43;2.22;;;1.50;;
45490;SDS011;31237;45.586;13.782;2022-08-03T06:17:10;3.03;;;1.80;;
45490;SDS011;31237;45.586;13.782;2022-08-03T06:19:35;2.75;;;1.67;;
45490;SDS011;31237;45.586;13.782;2022-08-03T06:22:01;2.72;;;1.60;;
45490;SDS011;31237;45.586;13.782;2022-08-03T06:24:27;2.85;;;1.70;;
45490;SDS011;31237;45.586;13.782;2022-08-03T06:26:53;2.58;;;1.60;;
45490;SDS011;31237;45.586;13.782;2022-08-03T06:29:18;2.85;;;1.63;;
45490;SDS011;31237;45.586;13.782;2022-08-03T06:31:44;2.78;;;1.52;;
45490;SDS011;31237;45.586;13.782;2022-08-03T06:34:10;3.00;;;2.00;;
45490;SDS011;31237;45.586;13.782;2022-08-03T06:36:36;2.63;;;1.60;;
45490;SDS011;31237;45.586;13.782;2022-08-03T06:39:02;3.58;;;1.60;;
45490;SDS011;31237;45.586;13.782;2022-08-03T06:41:28;3.10;;;1.63;;
45490;SDS011;31237;45.586;13.782;2022-08-03T06:43:54;2.67;;;1.42;;
45490;SDS011;31237;45.586;13.782;2022-08-03T06:46:19;3.53;;;1.85;;
45490;SDS011;31237;45.586;13.782;2022-08-03T06:48:46;2.40;;;1.60;;
45490;SDS011;31237;45.586;13.782;2022-08-03T06:51:12;2.97;;;1.80;;
45490;SDS011;31237;45.586;13.782;2022-08-03T06:53:38;2.50;;;1.42;;
45490;SDS011;31237;45.586;13.782;2022-08-03T06:56:04;2.55;;;1.60;;
45490;SDS011;31237;45.586;13.782;2022-08-03T06:58:30;2.90;;;1.58;;
45490;SDS011;31237;45.586;13.782;2022-08-03T07:00:56;3.50;;;1.50;;
45490;SDS011;31237;45.586;13.782;2022-08-03T07:03:21;2.75;;;1.80;;
45490;SDS011;31237;45.586;13.782;2022-08-03T07:05:47;3.90;;;1.60;;
45490;SDS011;31237;45.586;13.782;2022-08-03T07:08:15;2.25;;;1.48;;
45490;SDS011;31237;45.586;13.782;2022-08-03T07:10:41;2.33;;;1.42;;
45490;SDS011;31237;45.586;13.782;2022-08-03T07:13:07;2.60;;;1.42;;
45490;SDS011;31237;45.586;13.782;2022-08-03T07:15:33;2.35;;;1.48;;
45490;SDS011;31237;45.586;13.782;2022-08-03T07:17:59;3.38;;;1.85;;
45490;SDS011;31237;45.586;13.782;2022-08-03T07:20:25;2.60;;;1.60;;
45490;SDS011;31237;45.586;13.782;2022-08-03T07:22:51;2.83;;;1.58;;
45490;SDS011;31237;45.586;13.782;2022-08-03T07:25:16;3.05;;;1.45;;
45490;SDS011;31237;45.586;13.782;2022-08-03T07:27:42;2.42;;;1.50;;
45490;SDS011;31237;45.586;13.782;2022-08-03T07:30:09;2.65;;;1.48;;
45490;SDS011;31237;45.586;13.782;2022-08-03T07:32:35;2.50;;;1.45;;
45490;SDS011;31237;45.586;13.782;2022-08-03T07:35:02;3.00;;;1.70;;
45490;SDS011;31237;45.586;13.782;2022-08-03T07:37:28;2.42;;;1.40;;
45490;SDS011;31237;45.586;13.782;2022-08-03T07:39:55;2.30;;;1.42;;
45490;SDS011;31237;45.586;13.782;2022-08-03T07:42:21;3.97;;;1.60;;
45490;SDS011;31237;45.586;13.782;2022-08-03T07:44:48;2.60;;;1.60;;
45490;SDS011;31237;45.586;13.782;2022-08-03T07:47:17;2.15;;;1.30;;
45490;SDS011;31237;45.586;13.782;2022-08-03T07:49:47;3.33;;;1.40;;
45490;SDS011;31237;45.586;13.782;2022-08-03T07:52:15;2.80;;;1.50;;
45490;SDS011;31237;45.586;13.782;2022-08-03T07:55:00;2.17;;;1.30;;
45490;SDS011;31237;45.586;13.782;2022-08-03T07:57:25;2.33;;;1.40;;
45490;SDS011;31237;45.586;13.782;2022-08-03T07:59:51;2.20;;;1.40;;
45490;SDS011;31237;45.586;13.782;2022-08-03T08:02:17;4.07;;;1.50;;
45490;SDS011;31237;45.586;13.782;2022-08-03T08:04:42;3.00;;;1.60;;
45490;SDS011;31237;45.586;13.782;2022-08-03T08:07:08;2.38;;;1.40;;
45490;SDS011;31237;45.586;13.782;2022-08-03T08:09:34;2.70;;;1.48;;
45490;SDS011;31237;45.586;13.782;2022-08-03T08:12:00;2.30;;;1.50;;
45490;SDS011;31237;45.586;13.782;2022-08-03T08:14:26;5.32;;;1.42;;
45490;SDS011;31237;45.586;13.782;2022-08-03T08:16:51;2.92;;;1.42;;
45490;SDS011;31237;45.586;13.782;2022-08-03T08:19:18;3.42;;;1.33;;
45490;SDS011;31237;45.586;13.782;2022-08-03T08:21:44;2.03;;;1.30;;
45490;SDS011;31237;45.586;13.782;2022-08-03T08:24:09;2.40;;;1.40;;
45490;SDS011;31237;45.586;13.782;2022-08-03T08:26:35;2.47;;;1.58;;
45490;SDS011;31237;45.586;13.782;2022-08-03T08:29:01;2.83;;;1.40;;
45490;SDS011;31237;45.586;13.782;2022-08-03T08:31:27;2.15;;;1.20;;
45490;SDS011;31237;45.586;13.782;2022-08-03T08:33:53;2.10;;;1.35;;
45490;SDS011;31237;45.586;13.782;2022-08-03T08:36:19;2.67;;;1.50;;
45490;SDS011;31237;45.586;13.782;2022-08-03T08:38:45;2.42;;;1.48;;
45490;SDS011;31237;45.586;13.782;2022-08-03T08:41:12;2.47;;;1.40;;
45490;SDS011;31237;45.586;13.782;2022-08-03T08:43:38;2.45;;;1.50;;
45490;SDS011;31237;45.586;13.782;2022-08-03T08:46:05;2.85;;;1.60;;
45490;SDS011;31237;45.586;13.782;2022-08-03T08:48:32;2.42;;;1.33;;
45490;SDS011;31237;45.586;13.782;2022-08-03T08:51:03;2.25;;;1.50;;
45490;SDS011;31237;45.586;13.782;2022-08-03T08:53:29;3.95;;;1.33;;
45490;SDS011;31237;45.586;13.782;2022-08-03T08:55:59;3.65;;;1.60;;
45490;SDS011;31237;45.586;13.782;2022-08-03T08:58:31;1.85;;;1.25;;
45490;SDS011;31237;45.586;13.782;2022-08-03T09:01:00;3.72;;;1.60;;
45490;SDS011;31237;45.586;13.782;2022-08-03T09:03:27;2.50;;;1.40;;
45490;SDS011;31237;45.586;13.782;2022-08-03T09:05:54;2.22;;;1.40;;
45490;SDS011;31237;45.586;13.782;2022-08-03T09:08:20;2.25;;;1.45;;
45490;SDS011;31237;45.586;13.782;2022-08-03T09:10:47;2.35;;;1.38;;
45490;SDS011;31237;45.586;13.782;2022-08-03T09:13:12;2.30;;;1.40;;
45490;SDS011;31237;45.586;13.782;2022-08-03T09:15:38;2.25;;;1.40;;
45490;SDS011;31237;45.586;13.782;2022-08-03T09:18:06;3.13;;;1.50;;
45490;SDS011;31237;45.586;13.782;2022-08-03T09:20:33;2.20;;;1.40;;
45490;SDS011;31237;45.586;13.782;2022-08-03T09:23:01;3.03;;;1.70;;
45490;SDS011;31237;45.586;13.782;2022-08-03T09:25:35;2.35;;;1.42;;
45490;SDS011;31237;45.586;13.782;2022-08-03T09:28:04;2.15;;;1.30;;
45490;SDS011;31237;45.586;13.782;2022-08-03T09:30:36;2.20;;;1.30;;
45490;SDS011;31237;45.586;13.782;2022-08-03T09:33:05;2.53;;;1.40;;
45490;SDS011;31237;45.586;13.782;2022-08-03T09:35:33;2.42;;;1.23;;
45490;SDS011;31237;45.586;13.782;2022-08-03T09:38:09;2.42;;;1.50;;
45490;SDS011;31237;45.586;13.782;2022-08-03T09:40:42;1.88;;;1.20;;
45490;SDS011;31237;45.586;13.782;2022-08-03T09:43:09;2.10;;;1.38;;
45490;SDS011;31237;45.586;13.782;2022-08-03T09:45:36;3.65;;;1.50;;
45490;SDS011;31237;45.586;13.782;2022-08-03T09:53:21;2.38;;;1.35;;
45490;SDS011;31237;45.586;13.782;2022-08-03T09:58:19;2.70;;;1.48;;
45490;SDS011;31237;45.586;13.782;2022-08-03T10:00:58;2.33;;;1.30;;
45490;SDS011;31237;45.586;13.782;2022-08-03T10:03:28;2.60;;;1.33;;
45490;SDS011;31237;45.586;13.782;2022-08-03T10:05:56;2.58;;;1.20;;
45490;SDS011;31237;45.586;13.782;2022-08-03T10:08:22;3.35;;;1.52;;
45490;SDS011;31237;45.586;13.782;2022-08-03T10:10:49;2.22;;;1.23;;
45490;SDS011;31237;45.586;13.782;2022-08-03T10:13:19;2.00;;;1.30;;
45490;SDS011;31237;45.586;13.782;2022-08-03T10:15:46;2.55;;;1.20;;
45490;SDS011;31237;45.586;13.782;2022-08-03T10:18:11;2.10;;;1.30;;
45490;SDS011;31237;45.586;13.782;2022-08-03T10:20:58;2.70;;;1.40;;
45490;SDS011;31237;45.586;13.782;2022-08-03T10:23:27;2.30;;;1.50;;
45490;SDS011;31237;45.586;13.782;2022-08-03T10:26:00;1.88;;;1.27;;
45490;SDS011;31237;45.586;13.782;2022-08-03T10:28:30;2.28;;;1.40;;
45490;SDS011;31237;45.586;13.782;2022-08-03T10:31:04;3.88;;;1.27;;
45490;SDS011;31237;45.586;13.782;2022-08-03T10:33:33;2.17;;;1.27;;
45490;SDS011;31237;45.586;13.782;2022-08-03T10:36:03;2.75;;;1.45;;
45490;SDS011;31237;45.586;13.782;2022-08-03T10:38:39;2.30;;;1.42;;
45490;SDS011;31237;45.586;13.782;2022-08-03T10:41:12;2.42;;;1.20;;
45490;SDS011;31237;45.586;13.782;2022-08-03T10:43:41;1.48;;;1.10;;
45490;SDS011;31237;45.586;13.782;2022-08-03T10:46:13;2.10;;;1.30;;
45490;SDS011;31237;45.586;13.782;2022-08-03T10:48:41;2.53;;;1.30;;
45490;SDS011;31237;45.586;13.782;2022-08-03T10:51:08;1.63;;;1.10;;
45490;SDS011;31237;45.586;13.782;2022-08-03T10:53:41;2.45;;;1.30;;
45490;SDS011;31237;45.586;13.782;2022-08-03T11:01:56;1.92;;;1.20;;
45490;SDS011;31237;45.586;13.782;2022-08-03T11:04:22;1.85;;;1.20;;
45490;SDS011;31237;45.586;13.782;2022-08-03T11:09:45;2.50;;;1.40;;
45490;SDS011;31237;45.586;13.782;2022-08-03T11:12:30;2.15;;;1.30;;
45490;SDS011;31237;45.586;13.782;2022-08-03T11:15:04;1.85;;;1.27;;
45490;SDS011;31237;45.586;13.782;2022-08-03T11:17:32;2.15;;;1.35;;
45490;SDS011;31237;45.586;13.782;2022-08-03T11:19:59;1.90;;;1.30;;
45490;SDS011;31237;45.586;13.782;2022-08-03T11:22:24;1.98;;;1.13;;
45490;SDS011;31237;45.586;13.782;2022-08-03T11:25:10;2.17;;;1.15;;
45490;SDS011;31237;45.586;13.782;2022-08-03T11:27:38;2.55;;;1.48;;
45490;SDS011;31237;45.586;13.782;2022-08-03T11:30:09;2.13;;;1.30;;
45490;SDS011;31237;45.586;13.782;2022-08-03T11:35:31;1.90;;;1.20;;
45490;SDS011;31237;45.586;13.782;2022-08-03T11:40:39;2.10;;;1.42;;
45490;SDS011;31237;45.586;13.782;2022-08-03T11:43:43;2.97;;;1.70;;
45490;SDS011;31237;45.586;13.782;2022-08-03T11:46:01;2.72;;;1.52;;
45490;SDS011;31237;45.586;13.782;2022-08-03T11:48:35;3.22;;;1.30;;
45490;SDS011;31237;45.586;13.782;2022-08-03T11:51:06;2.80;;;1.52;;
45490;SDS011;31237;45.586;13.782;2022-08-03T11:53:42;3.90;;;1.70;;
45490;SDS011;31237;45.586;13.782;2022-08-03T11:56:08;2.58;;;1.65;;
45490;SDS011;31237;45.586;13.782;2022-08-03T11:58:34;2.47;;;1.55;;
45490;SDS011;31237;45.586;13.782;2022-08-03T12:01:05;2.75;;;1.60;;
45490;SDS011;31237;45.586;13.782;2022-08-03T12:03:35;1.95;;;1.30;;
45490;SDS011;31237;45.586;13.782;2022-08-03T12:06:01;2.40;;;1.60;;
45490;SDS011;31237;45.586;13.782;2022-08-03T12:08:29;2.72;;;1.58;;
45490;SDS011;31237;45.586;13.782;2022-08-03T12:10:57;2.83;;;1.45;;
45490;SDS011;31237;45.586;13.782;2022-08-03T12:13:24;1.90;;;1.13;;
45490;SDS011;31237;45.586;13.782;2022-08-03T12:15:59;2.05;;;1.23;;
45490;SDS011;31237;45.586;13.782;2022-08-03T12:18:26;2.50;;;1.40;;
45490;SDS011;31237;45.586;13.782;2022-08-03T12:20:52;1.92;;;1.20;;
45490;SDS011;31237;45.586;13.782;2022-08-03T12:23:27;2.40;;;1.40;;
45490;SDS011;31237;45.586;13.782;2022-08-03T12:25:53;1.77;;;1.20;;
45490;SDS011;31237;45.586;13.782;2022-08-03T12:28:26;1.90;;;1.20;;
45490;SDS011;31237;45.586;13.782;2022-08-03T12:30:52;2.25;;;1.25;;
45490;SDS011;31237;45.586;13.782;2022-08-03T12:33:19;1.95;;;1.15;;
45490;SDS011;31237;45.586;13.782;2022-08-03T12:38:30;2.42;;;1.38;;
45490;SDS011;31237;45.586;13.782;2022-08-03T12:40:57;1.90;;;1.20;;
45490;SDS011;31237;45.586;13.782;2022-08-03T12:43:24;1.85;;;1.10;;
45490;SDS011;31237;45.586;13.782;2022-08-03T12:45:50;1.65;;;1.10;;
45490;SDS011;31237;45.586;13.782;2022-08-03T12:48:16;1.98;;;1.30;;
45490;SDS011;31237;45.586;13.782;2022-08-03T12:50:42;3.00;;;1.23;;
45490;SDS011;31237;45.586;13.782;2022-08-03T12:53:08;2.10;;;1.30;;
45490;SDS011;31237;45.586;13.782;2022-08-03T12:55:36;2.63;;;1.70;;
45490;SDS011;31237;45.586;13.782;2022-08-03T12:58:04;2.30;;;1.42;;
45490;SDS011;31237;45.586;13.782;2022-08-03T13:00:34;2.30;;;1.40;;
45490;SDS011;31237;45.586;13.782;2022-08-03T13:03:01;2.40;;;1.40;;
45490;SDS011;31237;45.586;13.782;2022-08-03T13:05:28;2.13;;;1.25;;
45490;SDS011;31237;45.586;13.782;2022-08-03T13:07:55;2.65;;;1.30;;
45490;SDS011;31237;45.586;13.782;2022-08-03T13:10:29;3.40;;;1.40;;
45490;SDS011;31237;45.586;13.782;2022-08-03T13:12:56;2.97;;;1.30;;
45490;SDS011;31237;45.586;13.782;2022-08-03T13:15:24;2.85;;;1.60;;
45490;SDS011;31237;45.586;13.782;2022-08-03T13:17:52;2.45;;;1.38;;
45490;SDS011;31237;45.586;13.782;2022-08-03T13:20:19;2.28;;;1.30;;
45490;SDS011;31237;45.586;13.782;2022-08-03T13:22:45;2.90;;;1.48;;
45490;SDS011;31237;45.586;13.782;2022-08-03T13:25:12;1.83;;;1.30;;
45490;SDS011;31237;45.586;13.782;2022-08-03T13:27:38;2.65;;;1.33;;
45490;SDS011;31237;45.586;13.782;2022-08-03T13:30:04;1.83;;;1.15;;
45490;SDS011;31237;45.586;13.782;2022-08-03T13:32:31;3.08;;;1.48;;
45490;SDS011;31237;45.586;13.782;2022-08-03T13:34:57;2.28;;;1.38;;
45490;SDS011;31237;45.586;13.782;2022-08-03T13:37:23;2.13;;;1.20;;
45490;SDS011;31237;45.586;13.782;2022-08-03T13:39:49;2.38;;;1.30;;
45490;SDS011;31237;45.586;13.782;2022-08-03T13:42:15;2.00;;;1.30;;
45490;SDS011;31237;45.586;13.782;2022-08-03T13:44:40;2.30;;;1.42;;
45490;SDS011;31237;45.586;13.782;2022-08-03T13:47:07;2.42;;;1.52;;
45490;SDS011;31237;45.586;13.782;2022-08-03T13:49:33;2.60;;;1.50;;
45490;SDS011;31237;45.586;13.782;2022-08-03T13:51:58;2.45;;;1.50;;
45490;SDS011;31237;45.586;13.782;2022-08-03T13:54:24;3.40;;;1.67;;
45490;SDS011;31237;45.586;13.782;2022-08-03T13:56:51;2.58;;;1.45;;
45490;SDS011;31237;45.586;13.782;2022-08-03T13:59:20;2.03;;;1.38;;
45490;SDS011;31237;45.586;13.782;2022-08-03T14:01:48;2.15;;;1.25;;
45490;SDS011;31237;45.586;13.782;2022-08-03T14:04:14;2.38;;;1.40;;
45490;SDS011;31237;45.586;13.782;2022-08-03T14:06:41;2.15;;;1.40;;
45490;SDS011;31237;45.586;13.782;2022-08-03T14:09:09;2.30;;;1.20;;
45490;SDS011;31237;45.586;13.782;2022-08-03T14:11:39;2.38;;;1.30;;
45490;SDS011;31237;45.586;13.782;2022-08-03T14:14:05;2.13;;;1.33;;
45490;SDS011;31237;45.586;13.782;2022-08-03T14:16:31;2.20;;;1.25;;
45490;SDS011;31237;45.586;13.782;2022-08-03T14:18:56;2.10;;;1.40;;
45490;SDS011;31237;45.586;13.782;2022-08-03T14:21:31;2.53;;;1.30;;
45490;SDS011;31237;45.586;13.782;2022-08-03T14:23:58;5.57;;;1.27;;
45490;SDS011;31237;45.586;13.782;2022-08-03T14:26:24;2.53;;;1.33;;
45490;SDS011;31237;45.586;13.782;2022-08-03T14:28:50;2.00;;;1.27;;
45490;SDS011;31237;45.586;13.782;2022-08-03T14:31:15;2.05;;;1.20;;
45490;SDS011;31237;45.586;13.782;2022-08-03T14:33:41;2.65;;;1.50;;
45490;SDS011;31237;45.586;13.782;2022-08-03T14:36:07;2.33;;;1.30;;
45490;SDS011;31237;45.586;13.782;2022-08-03T14:38:33;1.83;;;1.13;;
45490;SDS011;31237;45.586;13.782;2022-08-03T14:40:58;2.35;;;1.30;;
45490;SDS011;31237;45.586;13.782;2022-08-03T14:43:24;2.15;;;1.30;;
45490;SDS011;31237;45.586;13.782;2022-08-03T14:45:50;2.88;;;1.67;;
45490;SDS011;31237;45.586;13.782;2022-08-03T14:48:18;3.05;;;1.35;;
45490;SDS011;31237;45.586;13.782;2022-08-03T14:50:44;2.53;;;1.55;;
45490;SDS011;31237;45.586;13.782;2022-08-03T14:53:10;2.38;;;1.52;;
45490;SDS011;31237;45.586;13.782;2022-08-03T14:55:36;2.13;;;1.40;;
45490;SDS011;31237;45.586;13.782;2022-08-03T14:58:02;2.30;;;1.30;;
45490;SDS011;31237;45.586;13.782;2022-08-03T15:00:33;2.30;;;1.40;;
45490;SDS011;31237;45.586;13.782;2022-08-03T15:03:00;2.33;;;1.38;;
45490;SDS011;31237;45.586;13.782;2022-08-03T15:05:27;2.55;;;1.38;;
45490;SDS011;31237;45.586;13.782;2022-08-03T15:07:52;2.67;;;1.45;;
45490;SDS011;31237;45.586;13.782;2022-08-03T15:10:18;2.10;;;1.27;;
45490;SDS011;31237;45.586;13.782;2022-08-03T15:12:44;2.28;;;1.38;;
45490;SDS011;31237;45.586;13.782;2022-08-03T15:15:10;2.50;;;1.30;;
45490;SDS011;31237;45.586;13.782;2022-08-03T15:17:36;1.83;;;1.13;;
45490;SDS011;31237;45.586;13.782;2022-08-03T15:20:02;2.55;;;1.48;;